sensor_id;sensor_type;location;lat;lon;timestamp;P1;durP1;ratioP1;P2;durP2;ratioP2
20653;SDS011;21083;50.898;4.902;2024-03-08T00:01:04;30.50;;;14.57;;
20653;SDS011;21083;50.898;4.902;2024-03-08T00:03:32;33.88;;;14.63;;
20653;SDS011;21083;50.898;4.902;2024-03-08T00:05:59;31.52;;;15.32;;
20653;SDS011;21083;50.898;4.902;2024-03-08T00:08:26;31.83;;;14.85;;
20653;SDS011;21083;50.898;4.902;2024-03-08T00:10:53;34.00;;;14.73;;
20653;SDS011;21083;50.898;4.902;2024-03-08T00:13:20;37.30;;;15.52;;
20653;SDS011;21083;50.898;4.902;2024-03-08T00:15:47;36.17;;;16.17;;
20653;SDS011;21083;50.898;4.902;2024-03-08T00:18:16;33.42;;;16.17;;
20653;SDS011;21083;50.898;4.902;2024-03-08T00:20:43;37.70;;;15.85;;
20653;SDS011;21083;50.898;4.902;2024-03-08T00:23:10;34.67;;;15.55;;
20653;SDS011;21083;50.898;4.902;2024-03-08T00:25:37;32.92;;;16.23;;
20653;SDS011;21083;50.898;4.902;2024-03-08T00:28:04;44.03;;;17.02;;
20653;SDS011;21083;50.898;4.902;2024-03-08T00:30:32;34.33;;;15.20;;
20653;SDS011;21083;50.898;4.902;2024-03-08T00:32:59;36.78;;;17.65;;
20653;SDS011;21083;50.898;4.902;2024-03-08T00:35:28;34.00;;;16.58;;
20653;SDS011;21083;50.898;4.902;2024-03-08T00:37:55;34.50;;;16.67;;
20653;SDS011;21083;50.898;4.902;2024-03-08T00:40:22;34.40;;;16.38;;
20653;SDS011;21083;50.898;4.902;2024-03-08T00:42:49;33.88;;;16.60;;
20653;SDS011;21083;50.898;4.902;2024-03-08T00:45:18;34.28;;;15.85;;
20653;SDS011;21083;50.898;4.902;2024-03-08T00:47:45;35.42;;;16.90;;
20653;SDS011;21083;50.898;4.902;2024-03-08T00:50:12;35.53;;;16.73;;
20653;SDS011;21083;50.898;4.902;2024-03-08T00:52:41;34.17;;;17.02;;
20653;SDS011;21083;50.898;4.902;2024-03-08T00:55:08;38.00;;;16.63;;
20653;SDS011;21083;50.898;4.902;2024-03-08T00:57:35;35.67;;;17.65;;
20653;SDS011;21083;50.898;4.902;2024-03-08T01:00:04;35.60;;;16.55;;
20653;SDS011;21083;50.898;4.902;2024-03-08T01:02:36;35.15;;;15.40;;
20653;SDS011;21083;50.898;4.902;2024-03-08T01:05:04;35.85;;;16.75;;
20653;SDS011;21083;50.898;4.902;2024-03-08T01:07:32;35.08;;;16.85;;
20653;SDS011;21083;50.898;4.902;2024-03-08T01:10:01;33.10;;;16.27;;
20653;SDS011;21083;50.898;4.902;2024-03-08T01:12:28;33.60;;;17.77;;
20653;SDS011;21083;50.898;4.902;2024-03-08T01:14:55;37.28;;;18.05;;
20653;SDS011;21083;50.898;4.902;2024-03-08T01:17:23;35.90;;;16.67;;
20653;SDS011;21083;50.898;4.902;2024-03-08T01:19:51;35.33;;;19.27;;
20653;SDS011;21083;50.898;4.902;2024-03-08T01:22:18;38.55;;;18.60;;
20653;SDS011;21083;50.898;4.902;2024-03-08T01:24:45;35.40;;;17.88;;
20653;SDS011;21083;50.898;4.902;2024-03-08T01:27:14;33.22;;;18.35;;
20653;SDS011;21083;50.898;4.902;2024-03-08T01:29:41;38.53;;;18.40;;
20653;SDS011;21083;50.898;4.902;2024-03-08T01:32:08;35.92;;;17.02;;
20653;SDS011;21083;50.898;4.902;2024-03-08T01:34:35;35.53;;;17.83;;
20653;SDS011;21083;50.898;4.902;2024-03-08T01:37:02;32.63;;;17.73;;
20653;SDS011;21083;50.898;4.902;2024-03-08T01:39:29;33.95;;;18.17;;
20653;SDS011;21083;50.898;4.902;2024-03-08T01:41:57;37.65;;;17.75;;
20653;SDS011;21083;50.898;4.902;2024-03-08T01:44:27;34.72;;;18.38;;
20653;SDS011;21083;50.898;4.902;2024-03-08T01:46:55;34.30;;;18.08;;
20653;SDS011;21083;50.898;4.902;2024-03-08T01:49:22;33.72;;;17.88;;
20653;SDS011;21083;50.898;4.902;2024-03-08T01:51:53;34.67;;;18.65;;
20653;SDS011;21083;50.898;4.902;2024-03-08T01:54:22;36.13;;;18.08;;
20653;SDS011;21083;50.898;4.902;2024-03-08T01:56:50;37.53;;;19.65;;
20653;SDS011;21083;50.898;4.902;2024-03-08T01:59:18;38.05;;;18.75;;
20653;SDS011;21083;50.898;4.902;2024-03-08T02:01:47;35.10;;;18.45;;
20653;SDS011;21083;50.898;4.902;2024-03-08T02:04:14;37.75;;;19.13;;
20653;SDS011;21083;50.898;4.902;2024-03-08T02:06:41;35.22;;;18.65;;
20653;SDS011;21083;50.898;4.902;2024-03-08T02:09:10;37.17;;;19.27;;
20653;SDS011;21083;50.898;4.902;2024-03-08T02:11:37;38.97;;;19.40;;
20653;SDS011;21083;50.898;4.902;2024-03-08T02:14:05;39.75;;;20.25;;
20653;SDS011;21083;50.898;4.902;2024-03-08T02:16:32;33.65;;;18.95;;
20653;SDS011;21083;50.898;4.902;2024-03-08T02:19:01;34.78;;;19.17;;
20653;SDS011;21083;50.898;4.902;2024-03-08T02:21:30;36.85;;;20.25;;
20653;SDS011;21083;50.898;4.902;2024-03-08T02:23:57;36.20;;;20.10;;
20653;SDS011;21083;50.898;4.902;2024-03-08T02:26:25;34.67;;;19.05;;
20653;SDS011;21083;50.898;4.902;2024-03-08T02:28:52;37.72;;;19.52;;
20653;SDS011;21083;50.898;4.902;2024-03-08T02:31:20;38.35;;;19.85;;
20653;SDS011;21083;50.898;4.902;2024-03-08T02:33:47;40.92;;;20.90;;
20653;SDS011;21083;50.898;4.902;2024-03-08T02:36:14;44.42;;;20.42;;
20653;SDS011;21083;50.898;4.902;2024-03-08T02:38:42;37.80;;;19.10;;
20653;SDS011;21083;50.898;4.902;2024-03-08T02:41:09;40.20;;;20.42;;
20653;SDS011;21083;50.898;4.902;2024-03-08T02:43:37;37.88;;;20.60;;
20653;SDS011;21083;50.898;4.902;2024-03-08T02:46:04;40.75;;;20.33;;
20653;SDS011;21083;50.898;4.902;2024-03-08T02:48:31;41.25;;;20.85;;
20653;SDS011;21083;50.898;4.902;2024-03-08T02:50:58;36.60;;;19.95;;
20653;SDS011;21083;50.898;4.902;2024-03-08T02:53:27;38.70;;;21.23;;
20653;SDS011;21083;50.898;4.902;2024-03-08T02:55:55;38.35;;;20.23;;
20653;SDS011;21083;50.898;4.902;2024-03-08T02:58:22;39.72;;;20.83;;
20653;SDS011;21083;50.898;4.902;2024-03-08T03:00:49;39.95;;;20.27;;
20653;SDS011;21083;50.898;4.902;2024-03-08T03:03:16;43.67;;;20.55;;
20653;SDS011;21083;50.898;4.902;2024-03-08T03:05:43;37.65;;;20.20;;
20653;SDS011;21083;50.898;4.902;2024-03-08T03:08:10;43.10;;;20.05;;
20653;SDS011;21083;50.898;4.902;2024-03-08T03:10:38;34.28;;;20.50;;
20653;SDS011;21083;50.898;4.902;2024-03-08T03:13:06;35.95;;;20.52;;
20653;SDS011;21083;50.898;4.902;2024-03-08T03:15:34;38.20;;;20.05;;
20653;SDS011;21083;50.898;4.902;2024-03-08T03:18:01;39.35;;;21.60;;
20653;SDS011;21083;50.898;4.902;2024-03-08T03:20:29;41.30;;;21.73;;
20653;SDS011;21083;50.898;4.902;2024-03-08T03:22:59;38.22;;;20.55;;
20653;SDS011;21083;50.898;4.902;2024-03-08T03:25:28;41.65;;;20.05;;
20653;SDS011;21083;50.898;4.902;2024-03-08T03:27:59;40.00;;;20.52;;
20653;SDS011;21083;50.898;4.902;2024-03-08T03:30:27;37.83;;;20.92;;
20653;SDS011;21083;50.898;4.902;2024-03-08T03:32:58;35.80;;;20.35;;
20653;SDS011;21083;50.898;4.902;2024-03-08T03:35:26;45.63;;;23.33;;
20653;SDS011;21083;50.898;4.902;2024-03-08T03:37:54;38.67;;;20.58;;
20653;SDS011;21083;50.898;4.902;2024-03-08T03:40:32;40.00;;;21.58;;
20653;SDS011;21083;50.898;4.902;2024-03-08T03:43:00;38.63;;;21.40;;
20653;SDS011;21083;50.898;4.902;2024-03-08T03:45:29;38.60;;;21.00;;
20653;SDS011;21083;50.898;4.902;2024-03-08T03:48:00;38.88;;;20.15;;
20653;SDS011;21083;50.898;4.902;2024-03-08T03:50:28;43.95;;;21.10;;
20653;SDS011;21083;50.898;4.902;2024-03-08T03:52:55;37.05;;;20.63;;
20653;SDS011;21083;50.898;4.902;2024-03-08T03:55:22;40.33;;;21.17;;
20653;SDS011;21083;50.898;4.902;2024-03-08T03:57:49;41.58;;;21.45;;
20653;SDS011;21083;50.898;4.902;2024-03-08T04:00:17;41.50;;;20.27;;
20653;SDS011;21083;50.898;4.902;2024-03-08T04:02:46;40.33;;;21.10;;
20653;SDS011;21083;50.898;4.902;2024-03-08T04:05:14;35.45;;;19.95;;
20653;SDS011;21083;50.898;4.902;2024-03-08T04:07:41;37.90;;;20.25;;
20653;SDS011;21083;50.898;4.902;2024-03-08T04:10:10;45.83;;;23.17;;
20653;SDS011;21083;50.898;4.902;2024-03-08T04:12:37;41.72;;;21.33;;
20653;SDS011;21083;50.898;4.902;2024-03-08T04:15:05;43.42;;;21.40;;
20653;SDS011;21083;50.898;4.902;2024-03-08T04:17:32;40.05;;;21.15;;
20653;SDS011;21083;50.898;4.902;2024-03-08T04:20:04;38.33;;;20.65;;
20653;SDS011;21083;50.898;4.902;2024-03-08T04:22:35;43.55;;;21.02;;
20653;SDS011;21083;50.898;4.902;2024-03-08T04:25:02;40.88;;;21.02;;
20653;SDS011;21083;50.898;4.902;2024-03-08T04:27:30;44.13;;;20.85;;
20653;SDS011;21083;50.898;4.902;2024-03-08T04:29:58;39.63;;;20.92;;
20653;SDS011;21083;50.898;4.902;2024-03-08T04:32:25;40.55;;;20.73;;
20653;SDS011;21083;50.898;4.902;2024-03-08T04:34:53;37.15;;;20.30;;
20653;SDS011;21083;50.898;4.902;2024-03-08T04:37:21;40.75;;;20.75;;
20653;SDS011;21083;50.898;4.902;2024-03-08T04:39:49;42.03;;;19.92;;
20653;SDS011;21083;50.898;4.902;2024-03-08T04:42:16;43.90;;;21.65;;
20653;SDS011;21083;50.898;4.902;2024-03-08T04:44:43;40.50;;;21.13;;
20653;SDS011;21083;50.898;4.902;2024-03-08T04:47:10;45.40;;;21.38;;
20653;SDS011;21083;50.898;4.902;2024-03-08T04:49:37;39.05;;;20.02;;
20653;SDS011;21083;50.898;4.902;2024-03-08T04:52:05;42.38;;;21.38;;
20653;SDS011;21083;50.898;4.902;2024-03-08T04:54:34;36.65;;;19.75;;
20653;SDS011;21083;50.898;4.902;2024-03-08T04:57:01;41.03;;;21.35;;
20653;SDS011;21083;50.898;4.902;2024-03-08T04:59:29;44.42;;;21.23;;
20653;SDS011;21083;50.898;4.902;2024-03-08T05:01:57;41.53;;;20.90;;
20653;SDS011;21083;50.898;4.902;2024-03-08T05:04:24;41.45;;;21.08;;
20653;SDS011;21083;50.898;4.902;2024-03-08T05:06:51;42.25;;;21.20;;
20653;SDS011;21083;50.898;4.902;2024-03-08T05:09:18;38.80;;;20.98;;
20653;SDS011;21083;50.898;4.902;2024-03-08T05:11:47;44.08;;;21.55;;
20653;SDS011;21083;50.898;4.902;2024-03-08T05:14:15;44.90;;;21.00;;
20653;SDS011;21083;50.898;4.902;2024-03-08T05:16:45;42.95;;;21.48;;
20653;SDS011;21083;50.898;4.902;2024-03-08T05:19:13;37.47;;;20.65;;
20653;SDS011;21083;50.898;4.902;2024-03-08T05:21:42;42.92;;;20.80;;
20653;SDS011;21083;50.898;4.902;2024-03-08T05:24:10;47.45;;;22.17;;
20653;SDS011;21083;50.898;4.902;2024-03-08T05:26:38;37.97;;;20.85;;
20653;SDS011;21083;50.898;4.902;2024-03-08T05:29:07;42.20;;;21.02;;
20653;SDS011;21083;50.898;4.902;2024-03-08T05:31:36;41.95;;;20.13;;
20653;SDS011;21083;50.898;4.902;2024-03-08T05:34:09;43.28;;;19.67;;
20653;SDS011;21083;50.898;4.902;2024-03-08T05:36:36;37.58;;;20.45;;
20653;SDS011;21083;50.898;4.902;2024-03-08T05:39:03;44.90;;;21.00;;
20653;SDS011;21083;50.898;4.902;2024-03-08T05:41:31;40.65;;;20.33;;
20653;SDS011;21083;50.898;4.902;2024-03-08T05:43:58;42.13;;;21.83;;
20653;SDS011;21083;50.898;4.902;2024-03-08T05:46:27;39.90;;;21.05;;
20653;SDS011;21083;50.898;4.902;2024-03-08T05:48:54;39.58;;;21.50;;
20653;SDS011;21083;50.898;4.902;2024-03-08T05:51:23;44.47;;;21.08;;
20653;SDS011;21083;50.898;4.902;2024-03-08T05:53:52;46.95;;;21.85;;
20653;SDS011;21083;50.898;4.902;2024-03-08T05:56:22;40.22;;;20.55;;
20653;SDS011;21083;50.898;4.902;2024-03-08T05:58:49;40.97;;;20.25;;
20653;SDS011;21083;50.898;4.902;2024-03-08T06:01:16;41.83;;;20.98;;
20653;SDS011;21083;50.898;4.902;2024-03-08T06:03:44;41.08;;;20.98;;
20653;SDS011;21083;50.898;4.902;2024-03-08T06:06:13;45.35;;;21.67;;
20653;SDS011;21083;50.898;4.902;2024-03-08T06:08:40;41.03;;;20.65;;
20653;SDS011;21083;50.898;4.902;2024-03-08T06:11:08;39.47;;;20.98;;
20653;SDS011;21083;50.898;4.902;2024-03-08T06:13:36;43.10;;;20.80;;
20653;SDS011;21083;50.898;4.902;2024-03-08T06:16:03;46.97;;;21.30;;
20653;SDS011;21083;50.898;4.902;2024-03-08T06:18:33;39.78;;;20.90;;
20653;SDS011;21083;50.898;4.902;2024-03-08T06:21:03;41.00;;;20.05;;
20653;SDS011;21083;50.898;4.902;2024-03-08T06:23:31;37.65;;;20.23;;
20653;SDS011;21083;50.898;4.902;2024-03-08T06:25:58;43.65;;;20.33;;
20653;SDS011;21083;50.898;4.902;2024-03-08T06:28:25;42.33;;;20.90;;
20653;SDS011;21083;50.898;4.902;2024-03-08T06:30:52;44.42;;;21.67;;
20653;SDS011;21083;50.898;4.902;2024-03-08T06:33:19;42.25;;;20.38;;
20653;SDS011;21083;50.898;4.902;2024-03-08T06:35:46;42.50;;;20.10;;
20653;SDS011;21083;50.898;4.902;2024-03-08T06:38:14;46.58;;;21.98;;
20653;SDS011;21083;50.898;4.902;2024-03-08T06:40:42;43.95;;;21.10;;
20653;SDS011;21083;50.898;4.902;2024-03-08T06:43:09;40.45;;;20.38;;
20653;SDS011;21083;50.898;4.902;2024-03-08T06:45:39;43.00;;;20.73;;
20653;SDS011;21083;50.898;4.902;2024-03-08T06:48:06;40.70;;;20.23;;
20653;SDS011;21083;50.898;4.902;2024-03-08T06:50:34;43.58;;;21.48;;
20653;SDS011;21083;50.898;4.902;2024-03-08T06:53:02;45.40;;;20.67;;
20653;SDS011;21083;50.898;4.902;2024-03-08T06:55:31;41.67;;;21.52;;
20653;SDS011;21083;50.898;4.902;2024-03-08T06:57:59;42.88;;;20.95;;
20653;SDS011;21083;50.898;4.902;2024-03-08T07:00:26;41.28;;;19.80;;
20653;SDS011;21083;50.898;4.902;2024-03-08T07:02:55;42.38;;;20.05;;
20653;SDS011;21083;50.898;4.902;2024-03-08T07:05:26;44.33;;;21.25;;
20653;SDS011;21083;50.898;4.902;2024-03-08T07:07:53;46.33;;;21.50;;
20653;SDS011;21083;50.898;4.902;2024-03-08T07:10:21;44.83;;;20.88;;
20653;SDS011;21083;50.898;4.902;2024-03-08T07:12:51;40.95;;;20.20;;
20653;SDS011;21083;50.898;4.902;2024-03-08T07:15:19;47.25;;;19.63;;
20653;SDS011;21083;50.898;4.902;2024-03-08T07:17:46;43.70;;;19.83;;
20653;SDS011;21083;50.898;4.902;2024-03-08T07:20:13;42.58;;;19.77;;
20653;SDS011;21083;50.898;4.902;2024-03-08T07:22:44;41.58;;;20.83;;
20653;SDS011;21083;50.898;4.902;2024-03-08T07:25:12;38.08;;;19.60;;
20653;SDS011;21083;50.898;4.902;2024-03-08T07:27:51;41.65;;;19.80;;
20653;SDS011;21083;50.898;4.902;2024-03-08T07:30:19;46.30;;;19.67;;
20653;SDS011;21083;50.898;4.902;2024-03-08T07:33:04;41.90;;;19.85;;
20653;SDS011;21083;50.898;4.902;2024-03-08T07:35:32;39.85;;;17.92;;
20653;SDS011;21083;50.898;4.902;2024-03-08T07:38:02;41.40;;;18.65;;
20653;SDS011;21083;50.898;4.902;2024-03-08T07:40:30;35.92;;;18.65;;
20653;SDS011;21083;50.898;4.902;2024-03-08T07:42:59;38.30;;;18.77;;
20653;SDS011;21083;50.898;4.902;2024-03-08T07:45:27;48.55;;;19.88;;
20653;SDS011;21083;50.898;4.902;2024-03-08T07:47:55;40.95;;;18.75;;
20653;SDS011;21083;50.898;4.902;2024-03-08T07:50:23;37.38;;;18.40;;
20653;SDS011;21083;50.898;4.902;2024-03-08T07:52:50;39.78;;;19.60;;
20653;SDS011;21083;50.898;4.902;2024-03-08T07:55:17;38.60;;;18.92;;
20653;SDS011;21083;50.898;4.902;2024-03-08T07:57:44;35.40;;;17.67;;
20653;SDS011;21083;50.898;4.902;2024-03-08T08:00:14;42.40;;;19.63;;
20653;SDS011;21083;50.898;4.902;2024-03-08T08:02:44;46.25;;;21.23;;
20653;SDS011;21083;50.898;4.902;2024-03-08T08:05:11;39.58;;;18.95;;
20653;SDS011;21083;50.898;4.902;2024-03-08T08:07:39;37.58;;;18.25;;
20653;SDS011;21083;50.898;4.902;2024-03-08T08:10:09;39.83;;;19.08;;
20653;SDS011;21083;50.898;4.902;2024-03-08T08:12:43;35.67;;;18.27;;
20653;SDS011;21083;50.898;4.902;2024-03-08T08:15:11;38.20;;;18.60;;
20653;SDS011;21083;50.898;4.902;2024-03-08T08:17:39;35.55;;;18.20;;
20653;SDS011;21083;50.898;4.902;2024-03-08T08:20:06;34.90;;;18.13;;
20653;SDS011;21083;50.898;4.902;2024-03-08T08:22:34;38.72;;;17.77;;
20653;SDS011;21083;50.898;4.902;2024-03-08T08:25:01;44.10;;;20.52;;
20653;SDS011;21083;50.898;4.902;2024-03-08T08:27:29;38.83;;;18.05;;
20653;SDS011;21083;50.898;4.902;2024-03-08T08:29:56;34.15;;;18.00;;
20653;SDS011;21083;50.898;4.902;2024-03-08T08:32:23;38.70;;;18.35;;
20653;SDS011;21083;50.898;4.902;2024-03-08T08:34:51;33.58;;;17.27;;
20653;SDS011;21083;50.898;4.902;2024-03-08T08:37:18;35.05;;;17.38;;
20653;SDS011;21083;50.898;4.902;2024-03-08T08:39:45;36.95;;;18.63;;
20653;SDS011;21083;50.898;4.902;2024-03-08T08:42:12;37.75;;;17.70;;
20653;SDS011;21083;50.898;4.902;2024-03-08T08:44:39;37.92;;;18.38;;
20653;SDS011;21083;50.898;4.902;2024-03-08T08:47:06;35.05;;;17.10;;
20653;SDS011;21083;50.898;4.902;2024-03-08T08:49:33;34.33;;;17.00;;
20653;SDS011;21083;50.898;4.902;2024-03-08T08:52:02;33.55;;;16.55;;
20653;SDS011;21083;50.898;4.902;2024-03-08T08:54:30;34.50;;;17.08;;
20653;SDS011;21083;50.898;4.902;2024-03-08T08:56:57;34.30;;;16.83;;
20653;SDS011;21083;50.898;4.902;2024-03-08T08:59:24;35.10;;;15.52;;
20653;SDS011;21083;50.898;4.902;2024-03-08T09:01:52;33.20;;;17.08;;
20653;SDS011;21083;50.898;4.902;2024-03-08T09:04:20;34.60;;;16.13;;
20653;SDS011;21083;50.898;4.902;2024-03-08T09:06:48;32.72;;;16.27;;
20653;SDS011;21083;50.898;4.902;2024-03-08T09:09:16;32.97;;;16.33;;
20653;SDS011;21083;50.898;4.902;2024-03-08T09:11:44;35.28;;;16.42;;
20653;SDS011;21083;50.898;4.902;2024-03-08T09:14:11;33.97;;;17.13;;
20653;SDS011;21083;50.898;4.902;2024-03-08T09:16:39;32.55;;;16.15;;
20653;SDS011;21083;50.898;4.902;2024-03-08T09:19:06;32.47;;;15.77;;
20653;SDS011;21083;50.898;4.902;2024-03-08T09:21:36;36.47;;;16.98;;
20653;SDS011;21083;50.898;4.902;2024-03-08T09:24:04;34.70;;;16.40;;
20653;SDS011;21083;50.898;4.902;2024-03-08T09:26:33;34.25;;;16.15;;
20653;SDS011;21083;50.898;4.902;2024-03-08T09:29:01;30.38;;;15.02;;
20653;SDS011;21083;50.898;4.902;2024-03-08T09:31:28;30.77;;;15.13;;
20653;SDS011;21083;50.898;4.902;2024-03-08T09:33:55;30.85;;;15.38;;
20653;SDS011;21083;50.898;4.902;2024-03-08T09:36:22;31.05;;;15.02;;
20653;SDS011;21083;50.898;4.902;2024-03-08T09:38:50;30.52;;;15.77;;
20653;SDS011;21083;50.898;4.902;2024-03-08T09:41:18;29.85;;;15.30;;
20653;SDS011;21083;50.898;4.902;2024-03-08T09:43:46;30.88;;;14.52;;
20653;SDS011;21083;50.898;4.902;2024-03-08T09:46:14;28.45;;;14.02;;
20653;SDS011;21083;50.898;4.902;2024-03-08T09:48:42;27.85;;;14.80;;
20653;SDS011;21083;50.898;4.902;2024-03-08T09:51:10;31.17;;;15.35;;
20653;SDS011;21083;50.898;4.902;2024-03-08T09:53:40;31.10;;;15.13;;
20653;SDS011;21083;50.898;4.902;2024-03-08T09:56:08;28.85;;;14.73;;
20653;SDS011;21083;50.898;4.902;2024-03-08T09:58:36;31.52;;;15.48;;
20653;SDS011;21083;50.898;4.902;2024-03-08T10:01:20;26.33;;;14.07;;
20653;SDS011;21083;50.898;4.902;2024-03-08T10:03:47;31.77;;;15.57;;
20653;SDS011;21083;50.898;4.902;2024-03-08T10:06:15;26.75;;;14.45;;
20653;SDS011;21083;50.898;4.902;2024-03-08T10:08:43;28.83;;;14.73;;
20653;SDS011;21083;50.898;4.902;2024-03-08T10:11:10;26.42;;;14.02;;
20653;SDS011;21083;50.898;4.902;2024-03-08T10:13:37;29.45;;;15.43;;
20653;SDS011;21083;50.898;4.902;2024-03-08T10:16:06;28.48;;;14.20;;
20653;SDS011;21083;50.898;4.902;2024-03-08T10:18:35;31.08;;;15.57;;
20653;SDS011;21083;50.898;4.902;2024-03-08T10:21:03;30.48;;;15.48;;
20653;SDS011;21083;50.898;4.902;2024-03-08T10:23:33;27.75;;;15.35;;
20653;SDS011;21083;50.898;4.902;2024-03-08T10:26:10;28.95;;;15.63;;
20653;SDS011;21083;50.898;4.902;2024-03-08T10:28:40;28.60;;;15.15;;
20653;SDS011;21083;50.898;4.902;2024-03-08T10:31:08;34.05;;;16.00;;
20653;SDS011;21083;50.898;4.902;2024-03-08T10:33:37;26.13;;;13.70;;
20653;SDS011;21083;50.898;4.902;2024-03-08T10:36:05;24.90;;;13.13;;
20653;SDS011;21083;50.898;4.902;2024-03-08T10:38:35;25.83;;;13.30;;
20653;SDS011;21083;50.898;4.902;2024-03-08T10:41:04;28.27;;;14.45;;
20653;SDS011;21083;50.898;4.902;2024-03-08T10:43:36;24.10;;;13.18;;
20653;SDS011;21083;50.898;4.902;2024-03-08T10:46:21;29.95;;;14.43;;
20653;SDS011;21083;50.898;4.902;2024-03-08T10:48:59;27.75;;;14.88;;
20653;SDS011;21083;50.898;4.902;2024-03-08T10:51:31;25.65;;;13.90;;
20653;SDS011;21083;50.898;4.902;2024-03-08T10:53:58;29.35;;;14.68;;
20653;SDS011;21083;50.898;4.902;2024-03-08T10:56:28;26.77;;;14.15;;
20653;SDS011;21083;50.898;4.902;2024-03-08T10:58:55;26.42;;;14.55;;
20653;SDS011;21083;50.898;4.902;2024-03-08T11:01:23;28.55;;;14.55;;
20653;SDS011;21083;50.898;4.902;2024-03-08T11:03:51;27.15;;;14.18;;
20653;SDS011;21083;50.898;4.902;2024-03-08T11:06:29;25.63;;;14.02;;
20653;SDS011;21083;50.898;4.902;2024-03-08T11:08:57;28.85;;;13.45;;
20653;SDS011;21083;50.898;4.902;2024-03-08T11:11:25;30.10;;;15.23;;
20653;SDS011;21083;50.898;4.902;2024-03-08T11:13:55;28.90;;;14.27;;
20653;SDS011;21083;50.898;4.902;2024-03-08T11:16:38;26.42;;;15.15;;
20653;SDS011;21083;50.898;4.902;2024-03-08T11:19:23;26.05;;;15.13;;
20653;SDS011;21083;50.898;4.902;2024-03-08T11:22:04;34.00;;;15.40;;
20653;SDS011;21083;50.898;4.902;2024-03-08T11:24:39;23.42;;;13.20;;
20653;SDS011;21083;50.898;4.902;2024-03-08T11:27:07;27.30;;;14.43;;
20653;SDS011;21083;50.898;4.902;2024-03-08T11:29:38;27.42;;;14.38;;
20653;SDS011;21083;50.898;4.902;2024-03-08T11:32:09;28.50;;;14.88;;
20653;SDS011;21083;50.898;4.902;2024-03-08T11:34:39;28.30;;;14.65;;
20653;SDS011;21083;50.898;4.902;2024-03-08T11:37:14;25.70;;;14.80;;
20653;SDS011;21083;50.898;4.902;2024-03-08T11:39:46;33.08;;;14.60;;
20653;SDS011;21083;50.898;4.902;2024-03-08T11:42:14;25.50;;;13.57;;
20653;SDS011;21083;50.898;4.902;2024-03-08T11:44:41;24.58;;;13.55;;
20653;SDS011;21083;50.898;4.902;2024-03-08T11:47:09;28.52;;;13.93;;
20653;SDS011;21083;50.898;4.902;2024-03-08T11:49:37;27.92;;;14.50;;
20653;SDS011;21083;50.898;4.902;2024-03-08T11:52:04;26.00;;;13.73;;
20653;SDS011;21083;50.898;4.902;2024-03-08T11:54:33;25.67;;;14.25;;
20653;SDS011;21083;50.898;4.902;2024-03-08T11:57:01;25.23;;;14.30;;
20653;SDS011;21083;50.898;4.902;2024-03-08T11:59:28;26.90;;;13.75;;
20653;SDS011;21083;50.898;4.902;2024-03-08T12:02:00;35.03;;;21.90;;
20653;SDS011;21083;50.898;4.902;2024-03-08T12:04:28;29.48;;;15.65;;
20653;SDS011;21083;50.898;4.902;2024-03-08T12:06:57;22.63;;;13.45;;
20653;SDS011;21083;50.898;4.902;2024-03-08T12:09:27;27.88;;;14.52;;
20653;SDS011;21083;50.898;4.902;2024-03-08T12:11:55;26.02;;;14.98;;
20653;SDS011;21083;50.898;4.902;2024-03-08T12:14:24;26.42;;;14.18;;
20653;SDS011;21083;50.898;4.902;2024-03-08T12:16:51;25.27;;;14.57;;
20653;SDS011;21083;50.898;4.902;2024-03-08T12:19:18;26.17;;;14.05;;
20653;SDS011;21083;50.898;4.902;2024-03-08T12:21:46;32.20;;;14.48;;
20653;SDS011;21083;50.898;4.902;2024-03-08T12:24:15;25.95;;;14.57;;
20653;SDS011;21083;50.898;4.902;2024-03-08T12:26:44;26.80;;;14.35;;
20653;SDS011;21083;50.898;4.902;2024-03-08T12:29:21;29.45;;;13.98;;
20653;SDS011;21083;50.898;4.902;2024-03-08T12:31:53;28.95;;;14.45;;
20653;SDS011;21083;50.898;4.902;2024-03-08T12:34:23;24.27;;;14.38;;
20653;SDS011;21083;50.898;4.902;2024-03-08T12:36:52;27.23;;;13.82;;
20653;SDS011;21083;50.898;4.902;2024-03-08T12:39:19;25.80;;;13.98;;
20653;SDS011;21083;50.898;4.902;2024-03-08T12:41:52;25.23;;;14.27;;
20653;SDS011;21083;50.898;4.902;2024-03-08T12:44:21;25.75;;;14.05;;
20653;SDS011;21083;50.898;4.902;2024-03-08T12:46:48;25.00;;;13.60;;
20653;SDS011;21083;50.898;4.902;2024-03-08T12:49:16;26.13;;;13.90;;
20653;SDS011;21083;50.898;4.902;2024-03-08T12:51:44;28.10;;;15.52;;
20653;SDS011;21083;50.898;4.902;2024-03-08T12:54:11;24.80;;;13.68;;
20653;SDS011;21083;50.898;4.902;2024-03-08T12:56:38;23.92;;;13.95;;
20653;SDS011;21083;50.898;4.902;2024-03-08T12:59:06;25.33;;;13.10;;
20653;SDS011;21083;50.898;4.902;2024-03-08T13:01:36;24.45;;;14.45;;
20653;SDS011;21083;50.898;4.902;2024-03-08T13:04:04;26.30;;;14.35;;
20653;SDS011;21083;50.898;4.902;2024-03-08T13:06:32;24.52;;;13.82;;
20653;SDS011;21083;50.898;4.902;2024-03-08T13:08:59;23.10;;;12.90;;
20653;SDS011;21083;50.898;4.902;2024-03-08T13:11:30;22.77;;;13.63;;
20653;SDS011;21083;50.898;4.902;2024-03-08T13:14:02;23.00;;;13.07;;
20653;SDS011;21083;50.898;4.902;2024-03-08T13:16:30;26.83;;;13.32;;
20653;SDS011;21083;50.898;4.902;2024-03-08T13:19:01;23.35;;;13.38;;
20653;SDS011;21083;50.898;4.902;2024-03-08T13:21:28;24.13;;;13.40;;
20653;SDS011;21083;50.898;4.902;2024-03-08T13:23:56;22.05;;;12.75;;
20653;SDS011;21083;50.898;4.902;2024-03-08T13:26:25;27.73;;;13.55;;
20653;SDS011;21083;50.898;4.902;2024-03-08T13:28:58;27.55;;;15.07;;
20653;SDS011;21083;50.898;4.902;2024-03-08T13:31:25;25.77;;;13.27;;
20653;SDS011;21083;50.898;4.902;2024-03-08T13:33:52;21.55;;;13.02;;
20653;SDS011;21083;50.898;4.902;2024-03-08T13:36:24;23.13;;;13.68;;
20653;SDS011;21083;50.898;4.902;2024-03-08T13:38:54;24.83;;;13.80;;
20653;SDS011;21083;50.898;4.902;2024-03-08T13:41:24;27.55;;;12.93;;
20653;SDS011;21083;50.898;4.902;2024-03-08T13:43:51;24.65;;;12.38;;
20653;SDS011;21083;50.898;4.902;2024-03-08T13:46:20;22.73;;;13.15;;
20653;SDS011;21083;50.898;4.902;2024-03-08T13:48:48;26.02;;;13.13;;
20653;SDS011;21083;50.898;4.902;2024-03-08T13:51:15;23.73;;;13.60;;
20653;SDS011;21083;50.898;4.902;2024-03-08T13:53:44;23.42;;;13.15;;
20653;SDS011;21083;50.898;4.902;2024-03-08T13:56:12;21.75;;;12.65;;
20653;SDS011;21083;50.898;4.902;2024-03-08T13:58:40;25.67;;;12.23;;
20653;SDS011;21083;50.898;4.902;2024-03-08T14:01:09;24.50;;;13.43;;
20653;SDS011;21083;50.898;4.902;2024-03-08T14:03:37;24.35;;;12.77;;
20653;SDS011;21083;50.898;4.902;2024-03-08T14:06:07;24.13;;;14.23;;
20653;SDS011;21083;50.898;4.902;2024-03-08T14:08:34;21.23;;;12.23;;
20653;SDS011;21083;50.898;4.902;2024-03-08T14:11:04;20.90;;;12.63;;
20653;SDS011;21083;50.898;4.902;2024-03-08T14:13:40;22.13;;;12.48;;
20653;SDS011;21083;50.898;4.902;2024-03-08T14:16:10;23.45;;;13.68;;
20653;SDS011;21083;50.898;4.902;2024-03-08T14:18:37;22.55;;;12.73;;
20653;SDS011;21083;50.898;4.902;2024-03-08T14:21:04;22.23;;;13.02;;
20653;SDS011;21083;50.898;4.902;2024-03-08T14:23:32;21.10;;;12.40;;
20653;SDS011;21083;50.898;4.902;2024-03-08T14:25:59;24.65;;;13.75;;
20653;SDS011;21083;50.898;4.902;2024-03-08T14:28:36;24.73;;;12.65;;